Terminal Aerodrome Forecast
Issued by NWS Huntsville, AL

Home | Current Version | Previous Version | Text Only | Print | Product List | Glossary On
Versions: 1 2 3 4 5 6 7 8 9 10 11 12 13 14 15 16 17 18 19 20 21 22 23 24 25 26 27 28 29 30 31 32 33 34 35 36 37
000
FTUS44 KHUN 271132
TAFHSV
TAF
KHSV 271132Z 2712/2812 17005KT 4SM BR OVC006
     FM271500 20005KT P6SM BKN015
     FM271800 22005KT P6SM BKN030
     FM272000 23010KT P6SM BKN040
      TEMPO 2721/2801 5SM -TSRA BR BKN025CB
     FM280100 VRB03KT P6SM BKN050
     FM280600 VRB03KT P6SM BKN250=

USA.gov is the U.S. government's official web portal to all federal, state and local government web resources and services.